createdAt,value
2019-03-28T00:01:27.253Z,99.90
2019-03-28T00:06:17.826Z,99.90
2019-03-28T00:11:06.738Z,99.90
2019-03-28T00:16:00.375Z,99.90
2019-03-28T00:20:51.735Z,99.90
2019-03-28T00:25:43.925Z,99.90
2019-03-28T00:30:38.048Z,99.90
2019-03-28T00:35:31.510Z,99.90
2019-03-28T00:40:25.981Z,99.90
2019-03-28T00:45:19.408Z,99.90
2019-03-28T00:50:12.825Z,99.90
2019-03-28T00:55:06.426Z,99.90
2019-03-28T01:00:00.930Z,99.90
2019-03-28T01:04:54.470Z,99.90
2019-03-28T01:09:46.138Z,99.90
2019-03-28T01:14:40.049Z,99.90
2019-03-28T01:19:31.818Z,99.90
2019-03-28T01:24:25.653Z,99.90
2019-03-28T01:29:19.212Z,99.90
2019-03-28T01:34:27.656Z,99.90
2019-03-28T01:39:16.893Z,99.90
2019-03-28T01:44:08.841Z,99.90
2019-03-28T01:49:03.554Z,99.90
2019-03-28T01:53:54.850Z,99.90
2019-03-28T01:58:50.636Z,99.90
2019-03-28T02:03:43.923Z,99.90
2019-03-28T02:08:37.413Z,99.90
2019-03-28T02:13:30.232Z,99.90
2019-03-28T02:18:24.137Z,99.90
2019-03-28T02:23:15.721Z,99.90
2019-03-28T02:28:07.861Z,99.90
2019-03-28T02:33:00.813Z,99.90
2019-03-28T02:37:52.398Z,99.90
2019-03-28T02:42:44.631Z,99.90
2019-03-28T02:47:38.850Z,99.90
2019-03-28T02:52:32.839Z,99.90
2019-03-28T02:57:42.451Z,99.90
2019-03-28T03:02:35.090Z,99.90
2019-03-28T03:07:28.429Z,99.90
2019-03-28T03:12:21.776Z,99.90
2019-03-28T03:17:16.708Z,99.90
2019-03-28T03:22:09.551Z,99.90
2019-03-28T03:27:01.260Z,99.90
2019-03-28T03:31:55.593Z,99.90
2019-03-28T03:37:04.795Z,99.90
2019-03-28T03:41:54.068Z,99.90
2019-03-28T03:46:48.073Z,99.90
2019-03-28T03:51:42.377Z,99.90
2019-03-28T03:56:36.899Z,99.90
2019-03-28T04:01:28.754Z,99.90
2019-03-28T04:06:29.681Z,99.90
2019-03-28T04:11:39.534Z,99.90
2019-03-28T04:16:52.055Z,99.90
2019-03-28T04:21:42.197Z,99.90
2019-03-28T04:26:34.688Z,99.90
2019-03-28T04:31:26.809Z,99.90
2019-03-28T04:36:19.169Z,99.90
2019-03-28T04:41:11.320Z,99.90
2019-03-28T04:46:05.326Z,99.90
2019-03-28T04:50:59.166Z,99.90
2019-03-28T04:55:50.510Z,99.90
2019-03-28T05:00:42.282Z,99.90
2019-03-28T05:05:34.323Z,99.90
2019-03-28T05:10:26.570Z,99.90
2019-03-28T05:15:21.740Z,99.90
2019-03-28T05:20:15.874Z,99.90
2019-03-28T05:25:08.191Z,99.90
2019-03-28T05:29:59.980Z,99.90
2019-03-28T05:34:51.696Z,99.90
2019-03-28T05:39:43.696Z,99.90
2019-03-28T05:44:36.512Z,99.90
2019-03-28T05:49:28.954Z,99.90
2019-03-28T05:54:20.956Z,99.90
2019-03-28T05:59:12.890Z,99.90
2019-03-28T06:04:04.777Z,99.90
2019-03-28T06:08:57.732Z,99.90
2019-03-28T06:13:49.312Z,99.90
2019-03-28T06:18:41.681Z,99.90
2019-03-28T06:23:33.643Z,99.90
2019-03-28T06:28:26.625Z,99.90
2019-03-28T06:33:18.452Z,99.90
2019-03-28T06:38:12.987Z,99.90
2019-03-28T06:43:07.484Z,99.90
2019-03-28T06:47:58.875Z,99.90
2019-03-28T06:52:50.965Z,99.90
2019-03-28T06:57:43.094Z,99.90
2019-03-28T07:02:35.127Z,99.90
2019-03-28T07:07:27.458Z,99.90
2019-03-28T07:12:19.797Z,99.90
2019-03-28T07:17:11.717Z,99.90
2019-03-28T07:22:03.643Z,99.90
2019-03-28T07:26:55.637Z,99.90
2019-03-28T07:31:47.444Z,99.90
2019-03-28T07:36:39.449Z,99.90
2019-03-28T07:41:31.521Z,99.90
2019-03-28T07:46:23.912Z,99.90
2019-03-28T07:51:16.144Z,99.90
2019-03-28T07:56:08.216Z,99.90
2019-03-28T08:01:00.574Z,99.90
2019-03-28T08:05:52.769Z,99.90
2019-03-28T08:10:44.694Z,99.70
2019-03-28T08:15:36.623Z,99.70
2019-03-28T08:20:28.869Z,99.70
2019-03-28T08:25:20.860Z,99.90
2019-03-28T08:30:20.427Z,99.90
2019-03-28T08:35:11.719Z,99.90
2019-03-28T08:40:03.487Z,99.90
2019-03-28T08:44:55.666Z,99.60
2019-03-28T08:49:49.714Z,99.60
2019-03-28T08:54:41.606Z,99.30
2019-03-28T08:59:48.528Z,99.20
2019-03-28T09:04:42.382Z,99.40
2019-03-28T09:09:36.566Z,99.00
2019-03-28T09:14:31.754Z,98.40
2019-03-28T09:19:40.137Z,97.90
2019-03-28T09:24:31.641Z,96.70
2019-03-28T09:29:23.568Z,96.80
2019-03-28T09:34:15.657Z,96.30
2019-03-28T09:39:08.866Z,95.90
2019-03-28T09:44:01.269Z,95.80
2019-03-28T09:48:55.595Z,95.00
2019-03-28T09:53:47.714Z,94.40
2019-03-28T09:58:40.145Z,93.40
2019-03-28T10:03:33.590Z,92.50
2019-03-28T10:08:25.737Z,91.80
2019-03-28T10:13:17.716Z,90.70
2019-03-28T10:18:09.910Z,90.00
2019-03-28T10:23:03.537Z,86.70
2019-03-28T10:27:55.639Z,85.10
2019-03-28T10:32:49.896Z,84.10
2019-03-28T10:37:41.870Z,84.70
2019-03-28T10:42:34.748Z,84.10
2019-03-28T10:47:28.280Z,82.10
2019-03-28T10:52:20.824Z,81.00
2019-03-28T10:57:30.414Z,80.40
2019-03-28T11:02:21.743Z,77.70
2019-03-28T11:07:14.544Z,73.30
2019-03-28T11:12:07.213Z,69.70
2019-03-28T11:17:00.021Z,68.30
2019-03-28T11:21:52.489Z,67.10
2019-03-28T11:26:47.859Z,64.90
2019-03-28T11:31:52.869Z,64.50
2019-03-28T11:36:43.065Z,64.40
2019-03-28T11:41:36.310Z,65.40
2019-03-28T11:46:28.428Z,63.40
2019-03-28T11:51:20.545Z,65.60
2019-03-28T11:56:12.753Z,66.50
2019-03-28T12:01:05.400Z,64.80
2019-03-28T12:05:57.926Z,65.40
2019-03-28T12:10:50.852Z,66.40
2019-03-28T12:15:43.124Z,62.40
2019-03-28T12:20:35.971Z,60.80
2019-03-28T12:25:28.305Z,60.20
2019-03-28T12:30:21.594Z,59.80
2019-03-28T12:35:14.319Z,59.50
2019-03-28T12:40:07.085Z,57.50
2019-03-28T12:45:00.738Z,57.10
2019-03-28T12:49:52.892Z,56.80
2019-03-28T12:54:45.661Z,56.70
2019-03-28T12:59:38.998Z,56.90
2019-03-28T13:04:32.438Z,57.50
2019-03-28T13:09:24.857Z,57.90
2019-03-28T13:14:17.293Z,58.00
2019-03-28T13:19:09.445Z,57.60
2019-03-28T13:24:01.643Z,56.50
2019-03-28T13:28:55.034Z,56.90
2019-03-28T13:33:46.901Z,56.80
2019-03-28T13:38:39.389Z,58.80
2019-03-28T13:43:33.010Z,58.80
2019-03-28T13:48:25.150Z,58.30
2019-03-28T13:53:17.633Z,58.80
2019-03-28T13:58:09.904Z,57.70
2019-03-28T14:03:02.080Z,57.10
2019-03-28T14:07:55.124Z,59.20
2019-03-28T14:12:47.328Z,61.50
2019-03-28T14:17:39.358Z,62.80
2019-03-28T14:22:31.906Z,63.10
2019-03-28T14:27:24.432Z,64.70
2019-03-28T14:32:16.929Z,63.70
2019-03-28T14:37:09.497Z,63.30
2019-03-28T14:42:01.912Z,63.20
2019-03-28T14:46:55.072Z,64.40
2019-03-28T14:51:47.542Z,63.80
2019-03-28T14:56:40.165Z,63.20
2019-03-28T15:01:33.653Z,62.60
2019-03-28T15:06:27.642Z,62.60
2019-03-28T15:11:19.765Z,64.40
2019-03-28T15:16:11.927Z,64.40
2019-03-28T15:21:04.253Z,63.60
2019-03-28T15:25:58.663Z,63.70
2019-03-28T15:30:51.379Z,64.80
2019-03-28T15:35:43.507Z,67.00
2019-03-28T15:40:35.735Z,66.40
2019-03-28T15:45:28.026Z,66.80
2019-03-28T15:50:21.275Z,65.40
2019-03-28T15:55:16.142Z,65.40
2019-03-28T16:00:07.700Z,64.50
2019-03-28T16:04:59.988Z,65.30
2019-03-28T16:09:52.259Z,66.60
2019-03-28T16:14:44.998Z,66.10
2019-03-28T16:19:37.144Z,66.90
2019-03-28T16:24:29.489Z,66.70
2019-03-28T16:29:22.041Z,67.00
2019-03-28T16:34:14.529Z,67.10
2019-03-28T16:39:06.830Z,67.20
2019-03-28T16:44:00.209Z,66.60
2019-03-28T16:48:52.333Z,67.40
2019-03-28T16:53:44.872Z,67.90
2019-03-28T16:58:37.197Z,68.80
2019-03-28T17:03:31.389Z,67.20
2019-03-28T17:08:23.401Z,67.50
2019-03-28T17:13:15.576Z,66.70
2019-03-28T17:18:07.916Z,67.40
2019-03-28T17:23:00.494Z,68.00
2019-03-28T17:27:53.617Z,68.10
2019-03-28T17:32:45.801Z,68.40
2019-03-28T17:37:38.058Z,68.50
2019-03-28T17:42:32.275Z,70.00
2019-03-28T17:47:24.111Z,71.30
2019-03-28T17:52:16.226Z,72.10
2019-03-28T17:57:08.528Z,71.90
2019-03-28T18:02:00.934Z,72.10
2019-03-28T18:06:53.713Z,72.60
2019-03-28T18:11:46.005Z,74.20
2019-03-28T18:16:38.765Z,75.40
2019-03-28T18:21:30.995Z,75.50
2019-03-28T18:26:23.222Z,76.10
2019-03-28T18:31:15.506Z,77.60
2019-03-28T18:36:07.909Z,78.20
2019-03-28T18:41:00.051Z,78.50
2019-03-28T18:45:52.428Z,78.10
2019-03-28T18:50:44.784Z,78.70
2019-03-28T18:55:38.818Z,79.10
2019-03-28T19:00:30.529Z,79.90
2019-03-28T19:05:24.253Z,81.40
2019-03-28T19:10:15.963Z,81.80
2019-03-28T19:15:08.104Z,82.60
2019-03-28T19:20:01.318Z,83.00
2019-03-28T19:24:53.335Z,84.40
2019-03-28T19:29:45.337Z,84.70
2019-03-28T19:34:37.592Z,85.50
2019-03-28T19:39:29.619Z,86.80
2019-03-28T19:44:21.626Z,87.10
2019-03-28T19:49:14.038Z,88.00
2019-03-28T19:54:06.126Z,88.80
2019-03-28T19:59:00.708Z,89.50
2019-03-28T20:03:55.378Z,90.00
2019-03-28T20:08:46.808Z,90.00
2019-03-28T20:13:39.173Z,90.30
2019-03-28T20:18:31.243Z,90.80
2019-03-28T20:23:24.094Z,91.50
2019-03-28T20:28:17.468Z,92.20
2019-03-28T20:33:08.918Z,92.90
2019-03-28T20:38:01.189Z,93.50
2019-03-28T20:42:53.336Z,94.00
2019-03-28T20:47:45.578Z,94.50
2019-03-28T20:52:37.822Z,95.00
2019-03-28T20:57:29.926Z,95.50
2019-03-28T21:02:23.457Z,96.00
2019-03-28T21:07:15.137Z,96.40
2019-03-28T21:12:07.146Z,96.70
2019-03-28T21:17:00.517Z,97.20
2019-03-28T21:21:52.608Z,97.60
2019-03-28T21:26:44.707Z,97.90
2019-03-28T21:31:51.970Z,98.10
2019-03-28T21:36:43.291Z,98.40
2019-03-28T21:41:34.641Z,98.90
2019-03-28T21:46:28.578Z,99.20
2019-03-28T21:51:21.361Z,99.60
2019-03-28T21:56:15.455Z,99.90
2019-03-28T22:01:07.867Z,99.90
2019-03-28T22:05:59.271Z,99.90
2019-03-28T22:10:51.164Z,99.90
2019-03-28T22:15:45.210Z,99.90
2019-03-28T22:20:36.490Z,99.90
2019-03-28T22:25:30.454Z,99.90
2019-03-28T22:30:21.848Z,99.90
2019-03-28T22:35:13.863Z,99.90
2019-03-28T22:40:06.289Z,99.90
2019-03-28T22:44:57.819Z,99.90
2019-03-28T22:49:49.758Z,99.90
2019-03-28T22:54:42.038Z,99.90
2019-03-28T22:59:34.156Z,99.90
2019-03-28T23:04:24.172Z,99.90
2019-03-28T23:09:14.371Z,99.90
2019-03-28T23:14:06.599Z,99.90
2019-03-28T23:18:58.500Z,99.90
2019-03-28T23:23:49.769Z,99.90
2019-03-28T23:28:40.017Z,99.90
2019-03-28T23:33:31.223Z,99.90
2019-03-28T23:38:22.838Z,99.90
2019-03-28T23:43:16.647Z,99.90
2019-03-28T23:48:09.892Z,99.90
2019-03-28T23:53:03.227Z,99.90
2019-03-28T23:57:56.378Z,99.90
